createdAt,value
2023-03-13T00:00:38.105Z,998.10
2023-03-13T00:01:38.080Z,998.09
2023-03-13T00:02:38.064Z,998.05
2023-03-13T00:03:38.061Z,998.13
2023-03-13T00:04:38.139Z,998.04
2023-03-13T00:05:38.033Z,998.03
2023-03-13T00:06:38.018Z,998.03
2023-03-13T00:07:38.004Z,998.02
2023-03-13T00:08:38.016Z,998.05
2023-03-13T00:09:37.983Z,998.05
2023-03-13T00:10:37.993Z,998.03
2023-03-13T00:11:37.982Z,997.98
2023-03-13T00:12:37.966Z,997.95
2023-03-13T00:13:37.982Z,997.90
2023-03-13T00:14:37.943Z,997.91
2023-03-13T00:15:37.934Z,997.85
2023-03-13T00:16:37.954Z,997.91
2023-03-13T00:17:37.952Z,997.86
2023-03-13T00:18:37.891Z,997.82
2023-03-13T00:19:37.894Z,997.85
2023-03-13T00:20:37.852Z,997.82
2023-03-13T00:21:37.866Z,997.82
2023-03-13T00:22:37.834Z,997.83
2023-03-13T00:23:37.850Z,997.76
2023-03-13T00:24:37.810Z,997.75
2023-03-13T00:25:37.813Z,997.72
2023-03-13T00:26:37.813Z,997.71
2023-03-13T00:27:37.783Z,997.66
2023-03-13T00:28:37.781Z,997.74
2023-03-13T00:29:37.755Z,997.66
2023-03-13T00:30:37.796Z,997.60
2023-03-13T00:31:37.778Z,997.55
2023-03-13T00:32:37.806Z,997.62
2023-03-13T00:33:37.710Z,997.52
2023-03-13T00:34:37.695Z,997.57
2023-03-13T00:35:37.735Z,997.54
2023-03-13T00:36:37.674Z,997.51
2023-03-13T00:37:37.691Z,997.57
2023-03-13T00:38:37.651Z,997.50
2023-03-13T00:39:37.644Z,997.51
2023-03-13T00:40:37.627Z,997.51
2023-03-13T00:41:37.660Z,997.44
2023-03-13T00:42:37.611Z,997.47
2023-03-13T00:43:37.595Z,997.45
2023-03-13T00:44:37.585Z,997.42
2023-03-13T00:45:37.573Z,997.37
2023-03-13T00:46:37.645Z,997.31
2023-03-13T00:47:37.582Z,997.31
2023-03-13T00:48:37.541Z,997.38
2023-03-13T00:49:37.526Z,997.34
2023-03-13T00:50:37.517Z,997.28
2023-03-13T00:51:37.503Z,997.38
2023-03-13T00:52:37.518Z,997.27
2023-03-13T00:53:37.482Z,997.31
2023-03-13T00:54:37.481Z,997.30
2023-03-13T00:55:37.460Z,997.19
2023-03-13T00:56:37.461Z,997.25
2023-03-13T00:57:37.473Z,997.28
2023-03-13T00:58:37.448Z,997.26
2023-03-13T00:59:37.424Z,997.23
2023-03-13T01:00:37.406Z,997.21
2023-03-13T01:01:37.420Z,997.20
2023-03-13T01:02:37.458Z,997.11
2023-03-13T01:03:37.453Z,997.14
2023-03-13T01:04:37.392Z,997.13
2023-03-13T01:05:37.354Z,997.09
2023-03-13T01:06:37.340Z,997.08
2023-03-13T01:07:37.339Z,997.06
2023-03-13T01:08:37.329Z,997.08
2023-03-13T01:09:37.345Z,997.07
2023-03-13T01:10:37.309Z,997.04
2023-03-13T01:11:37.334Z,997.02
2023-03-13T01:12:37.275Z,996.99
2023-03-13T01:13:37.265Z,997.01
2023-03-13T01:14:37.283Z,996.98
2023-03-13T01:15:37.320Z,996.98
2023-03-13T01:16:37.249Z,996.91
2023-03-13T01:17:37.239Z,996.87
2023-03-13T01:18:37.219Z,996.91
2023-03-13T01:19:37.225Z,996.89
2023-03-13T01:20:37.193Z,996.85
2023-03-13T01:21:37.207Z,996.80
2023-03-13T01:22:37.181Z,996.81
2023-03-13T01:23:37.171Z,996.79
2023-03-13T01:24:37.189Z,996.73
2023-03-13T01:25:37.135Z,996.71
2023-03-13T01:26:37.151Z,996.67
2023-03-13T01:27:37.205Z,996.61
2023-03-13T01:28:37.118Z,996.60
2023-03-13T01:29:37.099Z,996.61
2023-03-13T01:30:37.096Z,996.58
2023-03-13T01:31:37.174Z,996.57
2023-03-13T01:32:37.114Z,996.53
2023-03-13T01:33:37.058Z,996.45
2023-03-13T01:34:37.053Z,996.45
2023-03-13T01:35:37.061Z,996.46
2023-03-13T01:36:37.025Z,996.40
2023-03-13T01:37:37.034Z,996.43
2023-03-13T01:38:37.028Z,996.37
2023-03-13T01:39:36.988Z,996.35
2023-03-13T01:40:36.984Z,996.35
2023-03-13T01:41:36.970Z,996.35
2023-03-13T01:42:36.960Z,996.31
2023-03-13T01:43:36.958Z,996.31
2023-03-13T01:44:36.965Z,996.27
2023-03-13T01:45:36.928Z,996.24
2023-03-13T01:46:36.980Z,996.16
2023-03-13T01:47:36.902Z,996.15
2023-03-13T01:48:36.896Z,996.15
2023-03-13T01:49:36.897Z,996.13
2023-03-13T01:50:36.894Z,996.08
2023-03-13T01:51:36.859Z,996.09
2023-03-13T01:52:36.849Z,996.03
2023-03-13T01:53:36.840Z,996.02
2023-03-13T01:54:36.834Z,995.97
2023-03-13T01:55:36.839Z,995.92
2023-03-13T01:56:36.813Z,995.86
2023-03-13T01:57:36.800Z,995.83
2023-03-13T01:58:36.788Z,995.86
2023-03-13T01:59:36.782Z,995.79
2023-03-13T02:00:36.858Z,995.71
2023-03-13T02:01:36.790Z,995.63
2023-03-13T02:02:36.824Z,995.55
2023-03-13T02:03:36.731Z,995.50
2023-03-13T02:04:36.732Z,995.44
2023-03-13T02:05:36.716Z,995.46
2023-03-13T02:06:36.743Z,995.43
2023-03-13T02:07:36.689Z,995.41
2023-03-13T02:08:36.681Z,995.41
2023-03-13T02:09:36.696Z,995.36
2023-03-13T02:10:36.667Z,995.43
2023-03-13T02:11:36.642Z,995.34
2023-03-13T02:12:36.639Z,995.28
2023-03-13T02:13:36.632Z,995.32
2023-03-13T02:14:36.638Z,995.26
2023-03-13T02:15:36.613Z,995.28
2023-03-13T02:16:36.589Z,995.21
2023-03-13T02:17:36.581Z,995.17
2023-03-13T02:18:36.571Z,995.09
2023-03-13T02:19:36.559Z,995.07
2023-03-13T02:20:36.575Z,994.98
2023-03-13T02:21:36.534Z,994.99
2023-03-13T02:22:36.551Z,994.96
2023-03-13T02:23:36.512Z,994.93
2023-03-13T02:24:36.511Z,994.84
2023-03-13T02:25:36.491Z,994.88
2023-03-13T02:26:36.492Z,994.80
2023-03-13T02:27:36.486Z,994.79
2023-03-13T02:28:36.486Z,994.75
2023-03-13T02:29:36.456Z,994.71
2023-03-13T02:30:36.443Z,994.66
2023-03-13T02:31:36.498Z,994.68
2023-03-13T02:32:36.484Z,994.68
2023-03-13T02:33:36.401Z,994.63
2023-03-13T02:34:36.405Z,994.56
2023-03-13T02:35:36.427Z,994.53
2023-03-13T02:36:36.383Z,994.52
2023-03-13T02:37:36.361Z,994.53
2023-03-13T02:38:36.380Z,994.40
2023-03-13T02:39:36.348Z,994.38
2023-03-13T02:40:36.332Z,994.32
2023-03-13T02:41:36.321Z,994.34
2023-03-13T02:42:36.318Z,994.37
2023-03-13T02:43:36.304Z,994.39
2023-03-13T02:44:36.321Z,994.29
2023-03-13T02:45:36.274Z,994.33
2023-03-13T02:46:36.296Z,994.30
2023-03-13T02:47:36.256Z,994.24
2023-03-13T02:48:36.256Z,994.20
2023-03-13T02:49:36.254Z,994.20
2023-03-13T02:50:36.233Z,994.19
2023-03-13T02:51:36.215Z,994.18
2023-03-13T02:52:36.214Z,994.09
2023-03-13T02:53:36.201Z,994.15
2023-03-13T02:54:36.220Z,994.11
2023-03-13T02:55:36.172Z,994.06
2023-03-13T02:56:36.172Z,994.12
2023-03-13T02:57:36.159Z,994.11
2023-03-13T02:58:44.089Z,994.20
2023-03-13T02:59:37.163Z,994.18
2023-03-13T03:00:36.201Z,994.09
2023-03-13T03:01:36.114Z,993.99
2023-03-13T03:02:36.104Z,994.03
2023-03-13T03:03:36.174Z,994.06
2023-03-13T03:04:36.079Z,994.01
2023-03-13T03:05:36.098Z,994.04
2023-03-13T03:06:36.082Z,994.01
2023-03-13T03:07:36.050Z,994.03
2023-03-13T03:08:36.038Z,994.05
2023-03-13T03:09:36.035Z,993.96
2023-03-13T03:10:36.012Z,993.98
2023-03-13T03:11:36.030Z,993.90
2023-03-13T03:12:35.993Z,993.87
2023-03-13T03:13:35.982Z,993.87
2023-03-13T03:14:35.974Z,993.87
2023-03-13T03:15:35.964Z,993.86
2023-03-13T03:16:36.024Z,993.75
2023-03-13T03:17:35.964Z,993.72
2023-03-13T03:18:35.929Z,993.78
2023-03-13T03:19:35.922Z,993.76
2023-03-13T03:20:35.908Z,993.79
2023-03-13T03:21:43.674Z,993.78
2023-03-13T03:22:35.905Z,993.77
2023-03-13T03:23:37.713Z,993.78
2023-03-13T03:24:35.864Z,993.71
2023-03-13T03:25:35.859Z,993.67
2023-03-13T03:26:35.842Z,993.69
2023-03-13T03:27:35.831Z,993.67
2023-03-13T03:28:35.845Z,993.65
2023-03-13T03:29:35.811Z,993.58
2023-03-13T03:30:35.797Z,993.54
2023-03-13T03:31:35.865Z,993.52
2023-03-13T03:32:35.904Z,993.56
2023-03-13T03:33:35.771Z,993.53
2023-03-13T03:34:35.793Z,993.46
2023-03-13T03:35:35.784Z,993.43
2023-03-13T03:36:35.745Z,993.35
2023-03-13T03:37:35.723Z,993.39
2023-03-13T03:38:35.745Z,993.36
2023-03-13T03:39:35.701Z,993.42
2023-03-13T03:40:35.745Z,993.29
2023-03-13T03:41:35.672Z,993.37
2023-03-13T03:42:35.675Z,993.31
2023-03-13T03:43:35.663Z,993.22
2023-03-13T03:44:35.662Z,993.25
2023-03-13T03:45:35.717Z,993.24
2023-03-13T03:46:35.629Z,993.25
2023-03-13T03:47:35.609Z,993.22
2023-03-13T03:48:35.602Z,993.06
2023-03-13T03:49:35.590Z,993.01
2023-03-13T03:50:35.621Z,992.97
2023-03-13T03:51:35.572Z,993.06
2023-03-13T03:52:35.562Z,993.14
2023-03-13T03:53:35.544Z,993.16
2023-03-13T03:54:35.572Z,993.14
2023-03-13T03:55:35.523Z,993.09
2023-03-13T03:56:35.542Z,993.01
2023-03-13T03:57:35.506Z,993.02
2023-03-13T03:58:35.497Z,993.04
2023-03-13T03:59:35.485Z,993.10
2023-03-13T04:00:35.475Z,993.04
2023-03-13T04:01:35.465Z,993.06
2023-03-13T04:02:35.555Z,993.03
2023-03-13T04:03:35.555Z,992.98
2023-03-13T04:04:35.429Z,993.06
2023-03-13T04:05:35.424Z,992.96
2023-03-13T04:06:35.410Z,992.95
2023-03-13T04:07:35.429Z,992.98
2023-03-13T04:08:35.415Z,993.00
2023-03-13T04:09:35.376Z,992.99
2023-03-13T04:10:35.407Z,992.99
2023-03-13T04:11:35.360Z,993.03
2023-03-13T04:12:35.373Z,992.94
2023-03-13T04:13:35.339Z,993.08
2023-03-13T04:14:35.328Z,993.12
2023-03-13T04:15:35.336Z,992.93
2023-03-13T04:16:35.355Z,992.98
2023-03-13T04:17:35.320Z,992.96
2023-03-13T04:18:35.281Z,992.99
2023-03-13T04:19:35.287Z,992.94
2023-03-13T04:20:35.291Z,992.96
2023-03-13T04:21:35.261Z,992.99
2023-03-13T04:22:35.261Z,992.93
2023-03-13T04:23:35.228Z,992.95
2023-03-13T04:24:35.225Z,992.94
2023-03-13T04:25:35.212Z,992.94
2023-03-13T04:26:35.201Z,992.96
2023-03-13T04:27:35.211Z,992.90
2023-03-13T04:28:35.173Z,992.92
2023-03-13T04:29:35.192Z,992.88
2023-03-13T04:30:35.229Z,992.87
2023-03-13T04:31:35.143Z,992.84
2023-03-13T04:32:35.193Z,992.76
2023-03-13T04:33:35.122Z,992.82
2023-03-13T04:34:35.135Z,992.74
2023-03-13T04:35:35.240Z,992.76
2023-03-13T04:36:35.092Z,992.79
2023-03-13T04:37:35.084Z,992.74
2023-03-13T04:38:35.070Z,992.68
2023-03-13T04:39:35.063Z,992.60
2023-03-13T04:40:35.069Z,992.74
2023-03-13T04:41:35.046Z,992.74
2023-03-13T04:42:35.023Z,992.54
2023-03-13T04:43:35.019Z,992.61
2023-03-13T04:44:35.021Z,992.60
2023-03-13T04:45:34.993Z,992.56
2023-03-13T04:46:35.028Z,992.63
2023-03-13T04:47:34.970Z,992.58
2023-03-13T04:48:34.955Z,992.62
2023-03-13T04:49:34.946Z,992.64
2023-03-13T04:50:34.963Z,992.61
2023-03-13T04:51:34.924Z,992.57
2023-03-13T04:52:34.935Z,992.56
2023-03-13T04:53:34.904Z,992.56
2023-03-13T04:54:34.892Z,992.55
2023-03-13T04:55:34.879Z,992.60
2023-03-13T04:56:43.284Z,992.64
2023-03-13T04:57:35.882Z,992.51
2023-03-13T04:58:34.841Z,992.51
2023-03-13T04:59:34.845Z,992.54
2023-03-13T05:00:34.838Z,992.58
2023-03-13T05:01:34.884Z,992.51
2023-03-13T05:02:34.806Z,992.55
2023-03-13T05:03:34.794Z,992.46
2023-03-13T05:04:34.791Z,992.54
2023-03-13T05:05:34.849Z,992.51
2023-03-13T05:06:34.756Z,992.44
2023-03-13T05:07:34.779Z,992.41
2023-03-13T05:08:34.732Z,992.39
2023-03-13T05:09:34.717Z,992.40
2023-03-13T05:10:34.714Z,992.33
2023-03-13T05:11:34.707Z,992.41
2023-03-13T05:12:34.689Z,992.47
2023-03-13T05:13:34.701Z,992.36
2023-03-13T05:14:34.668Z,992.35
2023-03-13T05:15:34.674Z,992.32
2023-03-13T05:16:34.678Z,992.35
2023-03-13T05:17:34.626Z,992.34
2023-03-13T05:18:34.648Z,992.29
2023-03-13T05:19:34.607Z,992.38
2023-03-13T05:20:34.598Z,992.32
2023-03-13T05:21:34.593Z,992.30
2023-03-13T05:22:34.577Z,992.20
2023-03-13T05:23:34.671Z,992.12
2023-03-13T05:24:34.556Z,992.23
2023-03-13T05:25:34.574Z,992.25
2023-03-13T05:26:34.534Z,992.21
2023-03-13T05:27:34.517Z,992.15
2023-03-13T05:28:34.511Z,992.15
2023-03-13T05:29:34.496Z,992.15
2023-03-13T05:30:34.488Z,992.15
2023-03-13T05:31:34.541Z,992.08
2023-03-13T05:32:34.508Z,992.18
2023-03-13T05:33:34.496Z,992.09
2023-03-13T05:34:34.509Z,992.14
2023-03-13T05:35:34.516Z,991.83
2023-03-13T05:36:34.448Z,992.07
2023-03-13T05:37:34.410Z,992.12
2023-03-13T05:38:34.477Z,992.06
2023-03-13T05:39:34.446Z,992.03
2023-03-13T05:40:34.473Z,992.07
2023-03-13T05:41:34.488Z,992.09
2023-03-13T05:42:34.444Z,992.05
2023-03-13T05:43:34.355Z,992.04
2023-03-13T05:44:34.387Z,991.98
2023-03-13T05:45:34.344Z,991.86
2023-03-13T05:46:34.349Z,992.05
2023-03-13T05:47:34.319Z,992.01
2023-03-13T05:48:34.353Z,991.97
2023-03-13T05:49:34.300Z,992.04
2023-03-13T05:50:34.266Z,992.09
2023-03-13T05:51:34.250Z,992.05
2023-03-13T05:52:34.255Z,992.10
2023-03-13T05:53:34.238Z,992.06
2023-03-13T05:54:34.240Z,992.15
2023-03-13T05:55:34.198Z,992.04
2023-03-13T05:56:34.186Z,992.14
2023-03-13T05:57:34.197Z,992.09
2023-03-13T05:58:34.169Z,992.19
2023-03-13T05:59:34.178Z,992.07
2023-03-13T06:00:34.145Z,992.12
2023-03-13T06:01:34.135Z,992.19
2023-03-13T06:02:34.119Z,992.14
2023-03-13T06:03:34.247Z,992.11
2023-03-13T06:04:34.230Z,992.16
2023-03-13T06:05:34.086Z,992.13
2023-03-13T06:06:34.077Z,992.13
2023-03-13T06:07:34.054Z,992.11
2023-03-13T06:08:34.060Z,992.21
2023-03-13T06:09:34.070Z,992.20
2023-03-13T06:10:34.026Z,992.15
2023-03-13T06:11:34.014Z,992.02
2023-03-13T06:12:34.012Z,992.12
2023-03-13T06:13:33.995Z,992.03
2023-03-13T06:14:34.035Z,992.16
2023-03-13T06:15:33.970Z,992.08
2023-03-13T06:16:34.010Z,992.01
2023-03-13T06:17:33.948Z,991.99
2023-03-13T06:18:33.934Z,992.01
2023-03-13T06:19:33.950Z,992.07
2023-03-13T06:20:33.919Z,992.01
2023-03-13T06:21:33.895Z,991.96
2023-03-13T06:22:33.883Z,991.92
2023-03-13T06:23:33.885Z,991.99
2023-03-13T06:24:33.895Z,992.00
2023-03-13T06:25:33.858Z,992.02
2023-03-13T06:26:33.858Z,991.97
2023-03-13T06:27:33.839Z,991.86
2023-03-13T06:28:33.822Z,991.90
2023-03-13T06:29:33.806Z,991.98
2023-03-13T06:30:33.819Z,991.93
2023-03-13T06:31:33.860Z,992.02
2023-03-13T06:32:33.857Z,991.99
2023-03-13T06:33:33.767Z,991.87
2023-03-13T06:34:33.757Z,991.93
2023-03-13T06:35:41.033Z,991.97
2023-03-13T06:36:34.758Z,992.00
2023-03-13T06:37:33.735Z,992.04
2023-03-13T06:38:33.737Z,991.97
2023-03-13T06:39:33.687Z,991.97
2023-03-13T06:40:33.685Z,991.89
2023-03-13T06:41:33.668Z,991.98
2023-03-13T06:42:33.708Z,991.95
2023-03-13T06:43:33.652Z,991.99
2023-03-13T06:44:33.635Z,991.87
2023-03-13T06:45:33.630Z,991.93
2023-03-13T06:46:33.720Z,991.92
2023-03-13T06:47:33.622Z,991.91
2023-03-13T06:48:33.593Z,991.93
2023-03-13T06:49:33.578Z,991.82
2023-03-13T06:50:33.570Z,991.82
2023-03-13T06:51:33.557Z,991.82
2023-03-13T06:52:43.166Z,991.88
2023-03-13T06:53:34.553Z,991.88
2023-03-13T06:54:33.527Z,991.80
2023-03-13T06:55:33.515Z,991.81
2023-03-13T06:56:33.507Z,991.82
2023-03-13T06:57:33.489Z,991.90
2023-03-13T06:58:33.500Z,991.84
2023-03-13T06:59:33.487Z,991.78
2023-03-13T07:00:33.499Z,991.92
2023-03-13T07:01:33.485Z,991.79
2023-03-13T07:02:33.431Z,991.84
2023-03-13T07:03:33.474Z,991.88
2023-03-13T07:04:33.434Z,991.78
2023-03-13T07:05:33.424Z,991.89
2023-03-13T07:06:33.391Z,991.78
2023-03-13T07:07:33.382Z,991.78
2023-03-13T07:08:33.398Z,991.84
2023-03-13T07:09:33.364Z,991.86
2023-03-13T07:10:33.345Z,991.87
2023-03-13T07:11:33.355Z,991.86
2023-03-13T07:12:33.326Z,991.93
2023-03-13T07:13:33.305Z,991.90
2023-03-13T07:14:33.296Z,992.01
2023-03-13T07:15:33.286Z,991.83
2023-03-13T07:16:33.325Z,991.96
2023-03-13T07:17:33.332Z,991.89
2023-03-13T07:18:33.329Z,991.92
2023-03-13T07:19:33.245Z,991.90
2023-03-13T07:20:33.276Z,991.87
2023-03-13T07:21:33.217Z,991.87
2023-03-13T07:22:33.244Z,991.93
2023-03-13T07:23:33.198Z,991.99
2023-03-13T07:24:33.213Z,991.95
2023-03-13T07:25:33.174Z,991.90
2023-03-13T07:26:33.179Z,991.84
2023-03-13T07:27:33.172Z,991.78
2023-03-13T07:28:34.442Z,991.82
2023-03-13T07:29:33.140Z,991.89
2023-03-13T07:30:33.145Z,991.77
2023-03-13T07:31:33.152Z,991.89
2023-03-13T07:32:33.165Z,991.76
2023-03-13T07:33:33.102Z,991.85
2023-03-13T07:34:33.079Z,991.79
2023-03-13T07:35:33.072Z,991.80
2023-03-13T07:36:33.101Z,991.75
2023-03-13T07:37:33.041Z,991.64
2023-03-13T07:38:33.036Z,991.65
2023-03-13T07:39:33.044Z,991.60
2023-03-13T07:40:32.999Z,991.59
2023-03-13T07:41:32.990Z,991.51
2023-03-13T07:42:32.991Z,991.38
2023-03-13T07:43:32.987Z,991.61
2023-03-13T07:44:32.980Z,991.50
2023-03-13T07:45:33.034Z,991.49
2023-03-13T07:46:32.940Z,991.53
2023-03-13T07:47:32.924Z,991.46
2023-03-13T07:48:32.933Z,991.50
2023-03-13T07:49:32.929Z,991.50
2023-03-13T07:50:32.956Z,991.48
2023-03-13T07:51:42.983Z,991.49
2023-03-13T07:52:33.924Z,991.49
2023-03-13T07:53:32.924Z,991.50
2023-03-13T07:54:32.842Z,991.42
2023-03-13T07:55:32.866Z,991.53
2023-03-13T07:56:32.830Z,991.44
2023-03-13T07:57:32.814Z,991.43
2023-03-13T07:58:32.807Z,991.47
2023-03-13T07:59:32.790Z,991.49
2023-03-13T08:00:32.774Z,991.53
2023-03-13T08:01:32.805Z,991.42
2023-03-13T08:02:32.794Z,991.59
2023-03-13T08:03:32.783Z,991.43
2023-03-13T08:04:32.735Z,991.46
2023-03-13T08:05:32.727Z,991.48
2023-03-13T08:06:34.136Z,991.55
2023-03-13T08:07:32.720Z,991.48
2023-03-13T08:08:32.688Z,991.54
2023-03-13T08:09:32.675Z,991.37
2023-03-13T08:10:32.664Z,991.40
2023-03-13T08:11:32.660Z,991.55
2023-03-13T08:12:32.661Z,991.38
2023-03-13T08:13:32.635Z,991.43
2023-03-13T08:14:32.624Z,991.38
2023-03-13T08:15:32.621Z,991.55
2023-03-13T08:16:32.609Z,991.35
2023-03-13T08:17:32.612Z,991.40
2023-03-13T08:18:32.575Z,991.36
2023-03-13T08:19:32.561Z,991.38
2023-03-13T08:20:32.557Z,991.56
2023-03-13T08:21:32.539Z,991.34
2023-03-13T08:22:32.561Z,991.39
2023-03-13T08:23:32.520Z,991.37
2023-03-13T08:24:32.525Z,991.50
2023-03-13T08:25:32.490Z,991.46
2023-03-13T08:26:32.491Z,991.39
2023-03-13T08:27:32.482Z,991.32
2023-03-13T08:28:32.482Z,991.44
2023-03-13T08:29:32.470Z,991.37
2023-03-13T08:30:32.497Z,991.33
2023-03-13T08:31:32.422Z,991.42
2023-03-13T08:32:32.450Z,991.51
2023-03-13T08:33:32.402Z,991.37
2023-03-13T08:34:32.401Z,991.46
2023-03-13T08:35:32.461Z,991.32
2023-03-13T08:36:32.371Z,991.47
2023-03-13T08:37:32.380Z,991.39
2023-03-13T08:38:32.355Z,991.41
2023-03-13T08:39:32.340Z,991.44
2023-03-13T08:40:32.352Z,991.41
2023-03-13T08:41:32.348Z,991.28
2023-03-13T08:42:32.313Z,991.39
2023-03-13T08:43:32.301Z,991.32
2023-03-13T08:44:32.284Z,991.33
2023-03-13T08:45:32.278Z,991.52
2023-03-13T08:46:32.331Z,991.30
2023-03-13T08:47:32.256Z,991.32
2023-03-13T08:48:32.249Z,991.37
2023-03-13T08:49:32.255Z,991.41
2023-03-13T08:50:32.231Z,991.37
2023-03-13T08:51:32.208Z,991.38
2023-03-13T08:52:32.207Z,991.50
2023-03-13T08:53:32.193Z,991.43
2023-03-13T08:54:32.200Z,991.69
2023-03-13T08:55:32.174Z,991.50
2023-03-13T08:56:32.231Z,991.44
2023-03-13T08:57:32.170Z,991.46
2023-03-13T08:58:32.140Z,991.43
2023-03-13T08:59:32.132Z,991.39
2023-03-13T09:00:32.119Z,991.39
2023-03-13T09:01:32.119Z,991.43
2023-03-13T09:02:32.144Z,991.37
2023-03-13T09:03:32.131Z,991.38
2023-03-13T09:04:32.077Z,991.43
2023-03-13T09:05:33.038Z,991.43
2023-03-13T09:06:32.043Z,991.51
2023-03-13T09:07:32.036Z,991.32
2023-03-13T09:08:32.052Z,991.23
2023-03-13T09:09:32.015Z,991.38
2023-03-13T09:10:32.004Z,991.41
2023-03-13T09:11:31.994Z,991.38
2023-03-13T09:12:31.984Z,991.42
2023-03-13T09:13:31.982Z,991.31
2023-03-13T09:14:31.981Z,991.44
2023-03-13T09:15:31.959Z,991.38
2023-03-13T09:16:31.935Z,991.35
2023-03-13T09:17:31.934Z,991.44
2023-03-13T09:18:31.978Z,991.37
2023-03-13T09:19:31.932Z,991.32
2023-03-13T09:20:32.052Z,991.36
2023-03-13T09:21:31.901Z,991.34
2023-03-13T09:22:39.653Z,991.29
2023-03-13T09:23:31.863Z,991.39
2023-03-13T09:24:31.852Z,991.24
2023-03-13T09:25:31.867Z,991.28
2023-03-13T09:26:31.833Z,991.26
2023-03-13T09:27:31.816Z,991.25
2023-03-13T09:28:31.821Z,991.22
2023-03-13T09:29:31.821Z,991.27
2023-03-13T09:30:31.792Z,991.21
2023-03-13T09:31:31.836Z,991.24
2023-03-13T09:32:31.792Z,991.12
2023-03-13T09:33:31.744Z,991.29
2023-03-13T09:34:31.743Z,991.04
2023-03-13T09:35:31.746Z,991.01
2023-03-13T09:36:31.738Z,990.89
2023-03-13T09:37:31.823Z,990.99
2023-03-13T09:38:31.693Z,991.06
2023-03-13T09:39:31.696Z,991.02
2023-03-13T09:40:31.675Z,990.97
2023-03-13T09:41:31.683Z,990.94
2023-03-13T09:42:31.663Z,990.94
2023-03-13T09:43:31.646Z,990.84
2023-03-13T09:44:31.632Z,990.87
2023-03-13T09:45:31.622Z,990.74
2023-03-13T09:46:31.719Z,990.77
2023-03-13T09:47:31.676Z,990.88
2023-03-13T09:48:31.584Z,990.80
2023-03-13T09:49:31.578Z,990.90
2023-03-13T09:50:31.559Z,990.59
2023-03-13T09:51:31.548Z,990.65
2023-03-13T09:52:31.570Z,990.67
2023-03-13T09:53:31.550Z,990.77
2023-03-13T09:54:31.848Z,990.74
2023-03-13T09:55:31.506Z,990.68
2023-03-13T09:56:31.493Z,990.65
2023-03-13T09:57:31.491Z,990.62
2023-03-13T09:58:31.469Z,990.71
2023-03-13T09:59:31.479Z,990.67
2023-03-13T10:00:31.453Z,990.67
2023-03-13T10:01:31.590Z,990.82
2023-03-13T10:02:31.427Z,990.58
2023-03-13T10:03:31.416Z,990.58
2023-03-13T10:04:31.481Z,990.66
2023-03-13T10:05:31.424Z,990.61
2023-03-13T10:06:31.374Z,990.56
2023-03-13T10:07:31.375Z,990.41
2023-03-13T10:08:31.365Z,990.52
2023-03-13T10:09:31.347Z,990.54
2023-03-13T10:10:31.338Z,990.64
2023-03-13T10:11:31.336Z,990.46
2023-03-13T10:12:31.307Z,990.59
2023-03-13T10:13:31.304Z,990.49
2023-03-13T10:14:31.287Z,990.54
2023-03-13T10:15:31.293Z,990.63
2023-03-13T10:16:31.368Z,990.48
2023-03-13T10:17:31.344Z,990.62
2023-03-13T10:18:31.239Z,990.40
2023-03-13T10:19:31.227Z,990.74
2023-03-13T10:20:31.220Z,990.52
2023-03-13T10:21:31.236Z,990.52
2023-03-13T10:22:31.212Z,990.65
2023-03-13T10:23:31.189Z,990.50
2023-03-13T10:24:31.168Z,990.54
2023-03-13T10:25:31.195Z,990.46
2023-03-13T10:26:31.155Z,990.57
2023-03-13T10:27:31.148Z,990.49
2023-03-13T10:28:31.155Z,990.58
2023-03-13T10:29:31.116Z,990.80
2023-03-13T10:30:31.122Z,990.52
2023-03-13T10:31:31.198Z,990.40
2023-03-13T10:32:31.158Z,990.77
2023-03-13T10:33:31.070Z,990.34
2023-03-13T10:34:31.059Z,990.34
2023-03-13T10:35:31.069Z,990.51
2023-03-13T10:36:31.037Z,990.33
2023-03-13T10:37:31.037Z,990.13
2023-03-13T10:38:31.032Z,990.39
2023-03-13T10:39:31.009Z,990.26
2023-03-13T10:40:31.011Z,990.54
2023-03-13T10:41:31.049Z,990.35
2023-03-13T10:42:30.977Z,990.18
2023-03-13T10:43:30.982Z,990.07
2023-03-13T10:44:30.957Z,990.11
2023-03-13T10:45:30.958Z,990.27
2023-03-13T10:46:31.000Z,990.31
2023-03-13T10:47:30.924Z,990.27
2023-03-13T10:48:30.904Z,990.16
2023-03-13T10:49:30.907Z,990.10
2023-03-13T10:50:30.883Z,990.17
2023-03-13T10:51:30.872Z,989.89
2023-03-13T10:52:30.884Z,989.99
2023-03-13T10:53:30.856Z,990.06
2023-03-13T10:54:30.856Z,989.87
2023-03-13T10:55:30.846Z,989.80
2023-03-13T10:56:30.818Z,989.77
2023-03-13T10:57:30.842Z,989.81
2023-03-13T10:58:30.793Z,989.76
2023-03-13T10:59:30.789Z,989.86
2023-03-13T11:00:30.799Z,989.82
2023-03-13T11:01:30.766Z,989.76
2023-03-13T11:02:30.881Z,989.76
2023-03-13T11:03:30.817Z,989.88
2023-03-13T11:04:30.729Z,989.91
2023-03-13T11:05:30.749Z,990.15
2023-03-13T11:06:30.718Z,989.69
2023-03-13T11:07:30.701Z,989.77
2023-03-13T11:08:30.764Z,989.75
2023-03-13T11:09:30.679Z,989.68
2023-03-13T11:10:30.699Z,989.63
2023-03-13T11:11:30.673Z,989.72
2023-03-13T11:12:30.640Z,989.47
2023-03-13T11:13:37.078Z,989.60
2023-03-13T11:14:31.628Z,989.62
2023-03-13T11:15:30.612Z,989.54
2023-03-13T11:16:30.679Z,989.64
2023-03-13T11:17:30.591Z,989.64
2023-03-13T11:18:30.579Z,989.57
2023-03-13T11:19:30.571Z,989.57
2023-03-13T11:20:30.572Z,989.72
2023-03-13T11:21:30.552Z,989.50
2023-03-13T11:22:30.553Z,989.38
2023-03-13T11:23:30.524Z,989.69
2023-03-13T11:24:30.503Z,989.40
2023-03-13T11:25:30.502Z,989.56
2023-03-13T11:26:30.487Z,989.50
2023-03-13T11:27:30.532Z,989.42
2023-03-13T11:28:30.486Z,989.43
2023-03-13T11:29:30.473Z,989.54
2023-03-13T11:30:30.436Z,989.38
2023-03-13T11:31:30.459Z,989.35
2023-03-13T11:32:30.459Z,989.36
2023-03-13T11:33:30.429Z,989.43
2023-03-13T11:34:30.396Z,989.25
2023-03-13T11:35:30.405Z,989.34
2023-03-13T11:36:30.368Z,989.20
2023-03-13T11:37:30.358Z,989.34
2023-03-13T11:38:30.356Z,989.32
2023-03-13T11:39:30.364Z,989.04
2023-03-13T11:40:30.330Z,989.36
2023-03-13T11:41:30.377Z,989.04
2023-03-13T11:42:30.309Z,989.16
2023-03-13T11:43:30.318Z,989.19
2023-03-13T11:44:30.289Z,989.22
2023-03-13T11:45:30.379Z,989.20
2023-03-13T11:46:30.381Z,989.64
2023-03-13T11:47:30.280Z,989.11
2023-03-13T11:48:30.261Z,989.12
2023-03-13T11:49:30.240Z,989.18
2023-03-13T11:50:30.221Z,989.05
2023-03-13T11:51:30.312Z,989.01
2023-03-13T11:52:30.211Z,989.10
2023-03-13T11:53:30.182Z,989.02
2023-03-13T11:54:30.192Z,989.21
2023-03-13T11:55:30.161Z,989.01
2023-03-13T11:56:30.154Z,988.99
2023-03-13T11:57:30.152Z,988.79
2023-03-13T11:58:30.139Z,988.95
2023-03-13T11:59:30.119Z,989.18
2023-03-13T12:00:30.137Z,988.96
2023-03-13T12:01:30.102Z,988.89
2023-03-13T12:02:30.130Z,988.94
2023-03-13T12:03:30.178Z,988.83
2023-03-13T12:04:30.066Z,988.78
2023-03-13T12:05:30.117Z,988.81
2023-03-13T12:06:31.632Z,988.81
2023-03-13T12:07:30.047Z,988.76
2023-03-13T12:08:30.026Z,988.78
2023-03-13T12:09:30.009Z,988.78
2023-03-13T12:10:30.021Z,988.81
2023-03-13T12:11:29.999Z,988.74
2023-03-13T12:12:29.982Z,988.84
2023-03-13T12:13:29.967Z,988.63
2023-03-13T12:14:29.957Z,988.86
2023-03-13T12:15:29.979Z,988.70
2023-03-13T12:16:29.954Z,988.68
2023-03-13T12:17:29.957Z,988.84
2023-03-13T12:18:29.925Z,988.60
2023-03-13T12:19:29.916Z,988.60
2023-03-13T12:20:29.881Z,988.57
2023-03-13T12:21:29.930Z,988.64
2023-03-13T12:22:29.866Z,988.56
2023-03-13T12:23:29.891Z,988.67
2023-03-13T12:24:29.844Z,988.58
2023-03-13T12:25:29.970Z,988.59
2023-03-13T12:26:29.831Z,988.60
2023-03-13T12:27:29.822Z,988.72
2023-03-13T12:28:29.857Z,988.54